sensor_id;sensor_type;location;lat;lon;timestamp;temperature;humidity
53045;DHT22;38930;52.766;6.884;2022-09-12T00:00:04;14.60;99.90
53045;DHT22;38930;52.766;6.884;2022-09-12T00:02:29;14.60;99.90
53045;DHT22;38930;52.766;6.884;2022-09-12T00:04:55;14.60;99.90
53045;DHT22;38930;52.766;6.884;2022-09-12T00:07:21;14.50;99.90
53045;DHT22;38930;52.766;6.884;2022-09-12T00:09:46;14.50;99.90
53045;DHT22;38930;52.766;6.884;2022-09-12T00:12:12;14.50;99.90
53045;DHT22;38930;52.766;6.884;2022-09-12T00:14:37;14.50;99.90
53045;DHT22;38930;52.766;6.884;2022-09-12T00:17:03;14.50;99.90
53045;DHT22;38930;52.766;6.884;2022-09-12T00:19:29;14.50;99.90
53045;DHT22;38930;52.766;6.884;2022-09-12T00:21:55;14.50;99.90
53045;DHT22;38930;52.766;6.884;2022-09-12T00:24:21;14.50;99.90
53045;DHT22;38930;52.766;6.884;2022-09-12T00:26:47;14.40;99.90
53045;DHT22;38930;52.766;6.884;2022-09-12T00:29:18;14.50;99.90
53045;DHT22;38930;52.766;6.884;2022-09-12T00:31:44;14.60;99.90
53045;DHT22;38930;52.766;6.884;2022-09-12T00:34:10;14.30;99.90
53045;DHT22;38930;52.766;6.884;2022-09-12T00:36:37;14.40;99.90
53045;DHT22;38930;52.766;6.884;2022-09-12T00:39:03;14.30;99.90
53045;DHT22;38930;52.766;6.884;2022-09-12T00:41:32;14.20;99.90
53045;DHT22;38930;52.766;6.884;2022-09-12T00:44:01;14.30;99.90
53045;DHT22;38930;52.766;6.884;2022-09-12T00:49:13;14.20;99.90
53045;DHT22;38930;52.766;6.884;2022-09-12T00:51:44;14.20;99.90
53045;DHT22;38930;52.766;6.884;2022-09-12T00:54:15;14.20;99.90
53045;DHT22;38930;52.766;6.884;2022-09-12T00:56:44;14.10;99.90
53045;DHT22;38930;52.766;6.884;2022-09-12T00:59:14;14.10;99.90
53045;DHT22;38930;52.766;6.884;2022-09-12T01:01:43;14.00;99.90
53045;DHT22;38930;52.766;6.884;2022-09-12T01:04:11;14.00;99.90
53045;DHT22;38930;52.766;6.884;2022-09-12T01:06:41;14.00;99.90
53045;DHT22;38930;52.766;6.884;2022-09-12T01:09:13;14.00;99.90
53045;DHT22;38930;52.766;6.884;2022-09-12T01:11:40;14.00;99.90
53045;DHT22;38930;52.766;6.884;2022-09-12T01:14:07;14.00;99.90
53045;DHT22;38930;52.766;6.884;2022-09-12T01:16:37;14.00;99.90
53045;DHT22;38930;52.766;6.884;2022-09-12T01:22:10;13.90;99.90
53045;DHT22;38930;52.766;6.884;2022-09-12T01:25:05;13.90;99.90
53045;DHT22;38930;52.766;6.884;2022-09-12T01:28:09;13.90;99.90
53045;DHT22;38930;52.766;6.884;2022-09-12T01:30:42;13.80;99.90
53045;DHT22;38930;52.766;6.884;2022-09-12T01:38:59;13.80;99.90
53045;DHT22;38930;52.766;6.884;2022-09-12T01:41:43;13.70;99.90
53045;DHT22;38930;52.766;6.884;2022-09-12T01:44:30;13.60;99.90
53045;DHT22;38930;52.766;6.884;2022-09-12T01:47:22;13.60;99.90
53045;DHT22;38930;52.766;6.884;2022-09-12T01:50:03;13.50;99.90
53045;DHT22;38930;52.766;6.884;2022-09-12T01:52:48;13.60;99.90
53045;DHT22;38930;52.766;6.884;2022-09-12T01:55:26;13.50;99.90
53045;DHT22;38930;52.766;6.884;2022-09-12T01:58:04;13.50;99.90
53045;DHT22;38930;52.766;6.884;2022-09-12T02:00:36;13.50;99.90
53045;DHT22;38930;52.766;6.884;2022-09-12T02:03:10;13.50;99.90
53045;DHT22;38930;52.766;6.884;2022-09-12T02:05:51;13.60;99.90
53045;DHT22;38930;52.766;6.884;2022-09-12T02:08:43;13.60;99.90
53045;DHT22;38930;52.766;6.884;2022-09-12T02:11:10;13.60;99.90
53045;DHT22;38930;52.766;6.884;2022-09-12T02:14:10;13.50;99.90
53045;DHT22;38930;52.766;6.884;2022-09-12T02:16:41;13.50;99.90
53045;DHT22;38930;52.766;6.884;2022-09-12T02:19:15;13.40;99.90
53045;DHT22;38930;52.766;6.884;2022-09-12T02:21:55;13.40;99.90
53045;DHT22;38930;52.766;6.884;2022-09-12T02:24:27;13.40;99.90
53045;DHT22;38930;52.766;6.884;2022-09-12T02:27:03;13.40;99.90
53045;DHT22;38930;52.766;6.884;2022-09-12T02:29:30;13.40;99.90
53045;DHT22;38930;52.766;6.884;2022-09-12T02:31:56;13.40;99.90
53045;DHT22;38930;52.766;6.884;2022-09-12T02:37:17;13.30;99.90
53045;DHT22;38930;52.766;6.884;2022-09-12T02:39:45;13.40;99.90
53045;DHT22;38930;52.766;6.884;2022-09-12T02:42:11;13.60;99.90
53045;DHT22;38930;52.766;6.884;2022-09-12T02:44:37;13.20;99.90
53045;DHT22;38930;52.766;6.884;2022-09-12T02:47:14;13.30;99.90
53045;DHT22;38930;52.766;6.884;2022-09-12T02:49:42;13.50;99.90
53045;DHT22;38930;52.766;6.884;2022-09-12T02:52:08;13.30;99.90
53045;DHT22;38930;52.766;6.884;2022-09-12T02:54:34;13.20;99.90
53045;DHT22;38930;52.766;6.884;2022-09-12T02:59:26;13.20;99.90
53045;DHT22;38930;52.766;6.884;2022-09-12T03:02:06;13.20;99.90
53045;DHT22;38930;52.766;6.884;2022-09-12T03:24:37;13.10;99.90
53045;DHT22;38930;52.766;6.884;2022-09-12T03:27:11;13.10;99.90
53045;DHT22;38930;52.766;6.884;2022-09-12T03:29:39;13.10;99.90
53045;DHT22;38930;52.766;6.884;2022-09-12T03:32:06;13.10;99.90
53045;DHT22;38930;52.766;6.884;2022-09-12T03:34:32;13.10;99.90
53045;DHT22;38930;52.766;6.884;2022-09-12T03:36:57;13.00;99.90
53045;DHT22;38930;52.766;6.884;2022-09-12T03:39:24;13.10;99.90
53045;DHT22;38930;52.766;6.884;2022-09-12T03:41:51;13.00;99.90
53045;DHT22;38930;52.766;6.884;2022-09-12T03:44:18;13.00;99.90
53045;DHT22;38930;52.766;6.884;2022-09-12T03:46:44;13.00;99.90
53045;DHT22;38930;52.766;6.884;2022-09-12T03:49:10;12.90;99.90
53045;DHT22;38930;52.766;6.884;2022-09-12T03:51:36;12.90;99.90
53045;DHT22;38930;52.766;6.884;2022-09-12T03:54:02;12.90;99.90
53045;DHT22;38930;52.766;6.884;2022-09-12T03:56:28;12.90;99.90
53045;DHT22;38930;52.766;6.884;2022-09-12T03:58:53;12.90;99.90
53045;DHT22;38930;52.766;6.884;2022-09-12T04:01:19;12.90;99.90
53045;DHT22;38930;52.766;6.884;2022-09-12T04:03:47;12.80;99.90
53045;DHT22;38930;52.766;6.884;2022-09-12T04:06:15;12.80;99.90
53045;DHT22;38930;52.766;6.884;2022-09-12T04:08:43;12.90;99.90
53045;DHT22;38930;52.766;6.884;2022-09-12T04:11:12;12.70;99.90
53045;DHT22;38930;52.766;6.884;2022-09-12T04:13:40;12.70;99.90
53045;DHT22;38930;52.766;6.884;2022-09-12T04:16:06;12.70;99.90
53045;DHT22;38930;52.766;6.884;2022-09-12T04:18:32;12.70;99.90
53045;DHT22;38930;52.766;6.884;2022-09-12T04:20:58;12.70;99.90
53045;DHT22;38930;52.766;6.884;2022-09-12T04:23:23;12.70;99.90
53045;DHT22;38930;52.766;6.884;2022-09-12T04:25:57;12.70;99.90
53045;DHT22;38930;52.766;6.884;2022-09-12T04:28:23;12.70;99.90
53045;DHT22;38930;52.766;6.884;2022-09-12T04:30:49;12.70;99.90
53045;DHT22;38930;52.766;6.884;2022-09-12T04:33:15;12.70;99.90
53045;DHT22;38930;52.766;6.884;2022-09-12T04:35:41;12.70;99.90
53045;DHT22;38930;52.766;6.884;2022-09-12T04:38:07;12.70;99.90
53045;DHT22;38930;52.766;6.884;2022-09-12T04:40:33;12.60;99.90
53045;DHT22;38930;52.766;6.884;2022-09-12T04:42:58;12.60;99.90
53045;DHT22;38930;52.766;6.884;2022-09-12T04:45:24;12.60;99.90
53045;DHT22;38930;52.766;6.884;2022-09-12T04:47:50;12.60;99.90
53045;DHT22;38930;52.766;6.884;2022-09-12T04:50:17;12.60;99.90
53045;DHT22;38930;52.766;6.884;2022-09-12T04:52:43;12.60;99.90
53045;DHT22;38930;52.766;6.884;2022-09-12T04:55:13;12.50;99.90
53045;DHT22;38930;52.766;6.884;2022-09-12T04:57:38;12.90;99.90
53045;DHT22;38930;52.766;6.884;2022-09-12T05:00:04;12.60;99.90
53045;DHT22;38930;52.766;6.884;2022-09-12T05:02:32;12.60;99.90
53045;DHT22;38930;52.766;6.884;2022-09-12T05:04:58;12.60;99.90
53045;DHT22;38930;52.766;6.884;2022-09-12T05:07:24;12.60;99.90
53045;DHT22;38930;52.766;6.884;2022-09-12T05:09:49;12.60;99.90
53045;DHT22;38930;52.766;6.884;2022-09-12T05:12:15;12.60;99.90
53045;DHT22;38930;52.766;6.884;2022-09-12T05:14:40;12.70;99.90
53045;DHT22;38930;52.766;6.884;2022-09-12T05:17:06;12.60;99.90
53045;DHT22;38930;52.766;6.884;2022-09-12T05:19:32;12.60;99.90
53045;DHT22;38930;52.766;6.884;2022-09-12T05:21:58;12.70;99.90
53045;DHT22;38930;52.766;6.884;2022-09-12T05:24:24;12.80;99.90
53045;DHT22;38930;52.766;6.884;2022-09-12T05:26:50;12.80;99.90
53045;DHT22;38930;52.766;6.884;2022-09-12T05:29:15;12.80;99.90
53045;DHT22;38930;52.766;6.884;2022-09-12T05:31:41;12.90;99.90
53045;DHT22;38930;52.766;6.884;2022-09-12T05:34:07;12.90;99.90
53045;DHT22;38930;52.766;6.884;2022-09-12T05:36:33;13.00;99.90
53045;DHT22;38930;52.766;6.884;2022-09-12T05:38:59;13.00;99.90
53045;DHT22;38930;52.766;6.884;2022-09-12T05:41:28;13.10;99.90
53045;DHT22;38930;52.766;6.884;2022-09-12T05:44:00;13.20;99.90
53045;DHT22;38930;52.766;6.884;2022-09-12T05:46:28;13.30;99.90
53045;DHT22;38930;52.766;6.884;2022-09-12T05:48:55;13.30;99.90
53045;DHT22;38930;52.766;6.884;2022-09-12T05:51:22;13.40;99.90
53045;DHT22;38930;52.766;6.884;2022-09-12T05:53:58;13.50;99.90
53045;DHT22;38930;52.766;6.884;2022-09-12T05:56:26;13.60;99.90
53045;DHT22;38930;52.766;6.884;2022-09-12T05:58:55;13.70;99.90
53045;DHT22;38930;52.766;6.884;2022-09-12T06:01:21;13.70;99.90
53045;DHT22;38930;52.766;6.884;2022-09-12T06:03:49;13.70;99.90
53045;DHT22;38930;52.766;6.884;2022-09-12T06:06:16;13.80;99.90
53045;DHT22;38930;52.766;6.884;2022-09-12T06:08:45;13.80;99.90
53045;DHT22;38930;52.766;6.884;2022-09-12T06:11:16;13.90;99.90
53045;DHT22;38930;52.766;6.884;2022-09-12T06:13:42;14.00;99.90
53045;DHT22;38930;52.766;6.884;2022-09-12T06:16:20;14.00;99.90
53045;DHT22;38930;52.766;6.884;2022-09-12T06:18:47;14.10;99.90
53045;DHT22;38930;52.766;6.884;2022-09-12T06:21:14;14.40;99.90
53045;DHT22;38930;52.766;6.884;2022-09-12T06:23:40;14.20;99.90
53045;DHT22;38930;52.766;6.884;2022-09-12T06:26:09;14.20;99.90
53045;DHT22;38930;52.766;6.884;2022-09-12T06:28:36;14.40;99.90
53045;DHT22;38930;52.766;6.884;2022-09-12T06:31:11;14.40;99.90
53045;DHT22;38930;52.766;6.884;2022-09-12T06:33:42;14.40;99.90
53045;DHT22;38930;52.766;6.884;2022-09-12T06:36:19;14.40;99.90
53045;DHT22;38930;52.766;6.884;2022-09-12T06:38:45;14.50;99.90
53045;DHT22;38930;52.766;6.884;2022-09-12T06:41:13;14.60;99.90
53045;DHT22;38930;52.766;6.884;2022-09-12T06:43:40;14.60;99.90
53045;DHT22;38930;52.766;6.884;2022-09-12T06:46:07;14.60;99.90
53045;DHT22;38930;52.766;6.884;2022-09-12T06:48:34;14.80;99.90
53045;DHT22;38930;52.766;6.884;2022-09-12T06:51:02;14.80;99.90
53045;DHT22;38930;52.766;6.884;2022-09-12T06:53:29;14.80;99.90
53045;DHT22;38930;52.766;6.884;2022-09-12T06:55:59;14.90;99.90
53045;DHT22;38930;52.766;6.884;2022-09-12T06:58:27;14.90;99.90
53045;DHT22;38930;52.766;6.884;2022-09-12T07:00:59;15.10;99.90
53045;DHT22;38930;52.766;6.884;2022-09-12T07:03:26;15.00;99.90
53045;DHT22;38930;52.766;6.884;2022-09-12T07:05:52;15.00;99.90
53045;DHT22;38930;52.766;6.884;2022-09-12T07:08:17;15.10;99.90
53045;DHT22;38930;52.766;6.884;2022-09-12T07:10:43;15.20;99.90
53045;DHT22;38930;52.766;6.884;2022-09-12T07:13:08;15.30;99.90
53045;DHT22;38930;52.766;6.884;2022-09-12T07:15:34;15.30;99.90
53045;DHT22;38930;52.766;6.884;2022-09-12T07:18:01;15.30;99.90
53045;DHT22;38930;52.766;6.884;2022-09-12T07:20:27;15.40;99.90
53045;DHT22;38930;52.766;6.884;2022-09-12T07:22:52;15.40;99.90
53045;DHT22;38930;52.766;6.884;2022-09-12T07:25:18;15.40;99.90
53045;DHT22;38930;52.766;6.884;2022-09-12T07:27:43;15.60;99.90
53045;DHT22;38930;52.766;6.884;2022-09-12T07:30:09;15.50;99.90
53045;DHT22;38930;52.766;6.884;2022-09-12T07:32:35;15.60;99.90
53045;DHT22;38930;52.766;6.884;2022-09-12T07:35:01;15.60;99.90
53045;DHT22;38930;52.766;6.884;2022-09-12T07:37:29;15.60;99.90
53045;DHT22;38930;52.766;6.884;2022-09-12T07:39:55;15.70;99.90
53045;DHT22;38930;52.766;6.884;2022-09-12T07:42:22;15.70;99.90
53045;DHT22;38930;52.766;6.884;2022-09-12T07:44:47;15.80;99.90
53045;DHT22;38930;52.766;6.884;2022-09-12T07:47:13;15.80;99.90
53045;DHT22;38930;52.766;6.884;2022-09-12T07:49:39;15.90;99.90
53045;DHT22;38930;52.766;6.884;2022-09-12T07:52:04;15.90;99.90
53045;DHT22;38930;52.766;6.884;2022-09-12T07:54:30;16.00;99.90
53045;DHT22;38930;52.766;6.884;2022-09-12T07:56:57;16.10;99.90
53045;DHT22;38930;52.766;6.884;2022-09-12T07:59:23;16.10;99.90
53045;DHT22;38930;52.766;6.884;2022-09-12T08:01:49;16.30;99.90
53045;DHT22;38930;52.766;6.884;2022-09-12T08:04:14;16.20;99.90
53045;DHT22;38930;52.766;6.884;2022-09-12T08:06:40;16.30;99.90
53045;DHT22;38930;52.766;6.884;2022-09-12T08:09:05;16.50;99.90
53045;DHT22;38930;52.766;6.884;2022-09-12T08:11:32;16.50;99.90
53045;DHT22;38930;52.766;6.884;2022-09-12T08:13:58;16.60;99.90
53045;DHT22;38930;52.766;6.884;2022-09-12T08:16:28;16.70;99.90
53045;DHT22;38930;52.766;6.884;2022-09-12T08:18:55;16.80;99.90
53045;DHT22;38930;52.766;6.884;2022-09-12T08:21:25;16.80;99.90
53045;DHT22;38930;52.766;6.884;2022-09-12T08:23:52;16.90;99.90
53045;DHT22;38930;52.766;6.884;2022-09-12T08:26:18;17.00;99.90
53045;DHT22;38930;52.766;6.884;2022-09-12T08:28:45;16.90;99.90
53045;DHT22;38930;52.766;6.884;2022-09-12T08:31:13;17.00;99.90
53045;DHT22;38930;52.766;6.884;2022-09-12T08:33:39;17.00;99.90
53045;DHT22;38930;52.766;6.884;2022-09-12T08:36:16;17.10;99.90
53045;DHT22;38930;52.766;6.884;2022-09-12T08:38:44;17.10;99.90
53045;DHT22;38930;52.766;6.884;2022-09-12T08:44:17;17.10;99.90
53045;DHT22;38930;52.766;6.884;2022-09-12T08:47:09;17.10;99.90
53045;DHT22;38930;52.766;6.884;2022-09-12T08:49:44;17.10;99.90
53045;DHT22;38930;52.766;6.884;2022-09-12T08:52:23;17.20;99.90
53045;DHT22;38930;52.766;6.884;2022-09-12T08:54:51;17.30;99.90
53045;DHT22;38930;52.766;6.884;2022-09-12T08:57:17;17.30;99.90
53045;DHT22;38930;52.766;6.884;2022-09-12T08:59:44;17.40;99.90
53045;DHT22;38930;52.766;6.884;2022-09-12T09:05:07;17.60;99.90
53045;DHT22;38930;52.766;6.884;2022-09-12T09:08:28;17.70;99.90
53045;DHT22;38930;52.766;6.884;2022-09-12T09:11:02;17.70;99.90
53045;DHT22;38930;52.766;6.884;2022-09-12T09:16:39;17.90;99.90
53045;DHT22;38930;52.766;6.884;2022-09-12T09:21:51;18.10;99.90
53045;DHT22;38930;52.766;6.884;2022-09-12T09:24:22;18.20;99.90
53045;DHT22;38930;52.766;6.884;2022-09-12T09:27:28;18.40;99.90
53045;DHT22;38930;52.766;6.884;2022-09-12T09:29:53;18.50;99.90
53045;DHT22;38930;52.766;6.884;2022-09-12T09:34:57;18.70;99.90
53045;DHT22;38930;52.766;6.884;2022-09-12T09:37:37;18.80;99.90
53045;DHT22;38930;52.766;6.884;2022-09-12T09:40:31;19.00;99.90
53045;DHT22;38930;52.766;6.884;2022-09-12T09:43:10;19.10;99.90
53045;DHT22;38930;52.766;6.884;2022-09-12T09:45:40;19.30;99.90
53045;DHT22;38930;52.766;6.884;2022-09-12T09:50:36;19.40;99.90
53045;DHT22;38930;52.766;6.884;2022-09-12T09:53:01;19.60;99.90
53045;DHT22;38930;52.766;6.884;2022-09-12T09:55:33;19.60;99.90
53045;DHT22;38930;52.766;6.884;2022-09-12T09:58:03;19.70;99.90
53045;DHT22;38930;52.766;6.884;2022-09-12T10:00:34;19.90;99.90
53045;DHT22;38930;52.766;6.884;2022-09-12T10:05:46;20.10;99.90
53045;DHT22;38930;52.766;6.884;2022-09-12T10:16:33;20.40;99.90
53045;DHT22;38930;52.766;6.884;2022-09-12T10:19:01;20.40;99.90
53045;DHT22;38930;52.766;6.884;2022-09-12T10:24:18;20.50;99.90
53045;DHT22;38930;52.766;6.884;2022-09-12T10:26:48;20.50;99.90
53045;DHT22;38930;52.766;6.884;2022-09-12T10:29:27;20.60;99.90
53045;DHT22;38930;52.766;6.884;2022-09-12T10:31:57;20.60;99.90
53045;DHT22;38930;52.766;6.884;2022-09-12T10:34:36;20.60;99.90
53045;DHT22;38930;52.766;6.884;2022-09-12T10:39:53;21.00;99.90
53045;DHT22;38930;52.766;6.884;2022-09-12T10:42:44;20.90;99.90
53045;DHT22;38930;52.766;6.884;2022-09-12T10:47:50;21.20;99.90
53045;DHT22;38930;52.766;6.884;2022-09-12T10:50:29;21.20;99.90
53045;DHT22;38930;52.766;6.884;2022-09-12T10:53:21;21.30;99.90
53045;DHT22;38930;52.766;6.884;2022-09-12T11:04:39;21.90;99.90
53045;DHT22;38930;52.766;6.884;2022-09-12T11:07:19;21.90;99.90
53045;DHT22;38930;52.766;6.884;2022-09-12T11:12:30;22.00;99.90
53045;DHT22;38930;52.766;6.884;2022-09-12T11:32:21;22.80;99.90
53045;DHT22;38930;52.766;6.884;2022-09-12T11:40:28;23.00;99.90
53045;DHT22;38930;52.766;6.884;2022-09-12T11:45:51;23.10;99.90
53045;DHT22;38930;52.766;6.884;2022-09-12T11:51:06;23.20;99.90
53045;DHT22;38930;52.766;6.884;2022-09-12T11:53:41;23.30;99.90
53045;DHT22;38930;52.766;6.884;2022-09-12T11:56:16;23.40;99.90
53045;DHT22;38930;52.766;6.884;2022-09-12T11:58:49;23.50;99.90
53045;DHT22;38930;52.766;6.884;2022-09-12T12:01:38;23.40;99.90
53045;DHT22;38930;52.766;6.884;2022-09-12T12:04:10;23.30;99.90
53045;DHT22;38930;52.766;6.884;2022-09-12T12:06:51;23.30;99.90
53045;DHT22;38930;52.766;6.884;2022-09-12T12:09:18;23.30;99.90
53045;DHT22;38930;52.766;6.884;2022-09-12T12:11:49;23.30;99.90
53045;DHT22;38930;52.766;6.884;2022-09-12T12:14:20;23.30;99.90
53045;DHT22;38930;52.766;6.884;2022-09-12T12:16:47;23.30;99.90
53045;DHT22;38930;52.766;6.884;2022-09-12T12:21:51;23.60;99.90
53045;DHT22;38930;52.766;6.884;2022-09-12T12:24:23;23.70;99.90
53045;DHT22;38930;52.766;6.884;2022-09-12T12:44:57;24.20;99.90
53045;DHT22;38930;52.766;6.884;2022-09-12T12:47:26;24.20;99.90
53045;DHT22;38930;52.766;6.884;2022-09-12T12:50:06;24.30;99.90
53045;DHT22;38930;52.766;6.884;2022-09-12T12:55:17;24.30;99.90
53045;DHT22;38930;52.766;6.884;2022-09-12T12:57:49;24.40;99.90
53045;DHT22;38930;52.766;6.884;2022-09-12T13:06:04;24.60;99.90
53045;DHT22;38930;52.766;6.884;2022-09-12T13:08:37;24.50;99.90
53045;DHT22;38930;52.766;6.884;2022-09-12T13:11:14;24.50;99.90
53045;DHT22;38930;52.766;6.884;2022-09-12T13:13:50;24.50;99.90
53045;DHT22;38930;52.766;6.884;2022-09-12T13:19:16;24.40;99.90
53045;DHT22;38930;52.766;6.884;2022-09-12T13:22:01;24.40;99.90
53045;DHT22;38930;52.766;6.884;2022-09-12T13:24:26;24.40;99.90
53045;DHT22;38930;52.766;6.884;2022-09-12T13:26:53;24.30;99.90
53045;DHT22;38930;52.766;6.884;2022-09-12T13:29:20;24.40;99.90
53045;DHT22;38930;52.766;6.884;2022-09-12T13:31:58;24.40;99.90
53045;DHT22;38930;52.766;6.884;2022-09-12T13:34:30;24.40;99.90
53045;DHT22;38930;52.766;6.884;2022-09-12T13:45:26;24.40;99.90
53045;DHT22;38930;52.766;6.884;2022-09-12T13:47:59;24.20;99.90
53045;DHT22;38930;52.766;6.884;2022-09-12T13:50:32;24.30;99.90
53045;DHT22;38930;52.766;6.884;2022-09-12T13:53:05;24.30;99.90
53045;DHT22;38930;52.766;6.884;2022-09-12T13:55:41;24.40;99.90
53045;DHT22;38930;52.766;6.884;2022-09-12T13:58:22;24.30;99.90
53045;DHT22;38930;52.766;6.884;2022-09-12T14:03:32;24.50;99.90
53045;DHT22;38930;52.766;6.884;2022-09-12T14:06:17;24.50;99.90
53045;DHT22;38930;52.766;6.884;2022-09-12T14:08:45;24.50;99.90
53045;DHT22;38930;52.766;6.884;2022-09-12T14:11:22;24.40;99.90
53045;DHT22;38930;52.766;6.884;2022-09-12T14:13:49;24.30;99.90
53045;DHT22;38930;52.766;6.884;2022-09-12T14:16:15;24.20;99.90
53045;DHT22;38930;52.766;6.884;2022-09-12T14:18:41;24.20;99.90
53045;DHT22;38930;52.766;6.884;2022-09-12T14:21:11;24.20;99.90
53045;DHT22;38930;52.766;6.884;2022-09-12T14:23:48;24.20;99.90
53045;DHT22;38930;52.766;6.884;2022-09-12T14:26:15;24.20;99.90
53045;DHT22;38930;52.766;6.884;2022-09-12T14:28:43;24.10;99.90
53045;DHT22;38930;52.766;6.884;2022-09-12T14:34:08;24.10;99.90
53045;DHT22;38930;52.766;6.884;2022-09-12T14:36:46;24.00;99.90
53045;DHT22;38930;52.766;6.884;2022-09-12T14:39:20;24.10;99.90
53045;DHT22;38930;52.766;6.884;2022-09-12T14:41:48;24.20;99.90
53045;DHT22;38930;52.766;6.884;2022-09-12T14:44:18;24.10;99.90
53045;DHT22;38930;52.766;6.884;2022-09-12T14:46:44;24.20;99.90
53045;DHT22;38930;52.766;6.884;2022-09-12T14:49:20;24.10;99.90
53045;DHT22;38930;52.766;6.884;2022-09-12T14:51:54;24.20;99.90
53045;DHT22;38930;52.766;6.884;2022-09-12T14:54:38;24.10;99.90
53045;DHT22;38930;52.766;6.884;2022-09-12T14:59:52;24.20;99.90
53045;DHT22;38930;52.766;6.884;2022-09-12T15:05:13;24.10;99.90
53045;DHT22;38930;52.766;6.884;2022-09-12T15:07:51;24.10;99.90
53045;DHT22;38930;52.766;6.884;2022-09-12T15:12:56;24.00;99.90
53045;DHT22;38930;52.766;6.884;2022-09-12T15:15:28;24.00;99.90
53045;DHT22;38930;52.766;6.884;2022-09-12T15:17:54;23.90;99.90
53045;DHT22;38930;52.766;6.884;2022-09-12T15:20:19;23.90;99.90
53045;DHT22;38930;52.766;6.884;2022-09-12T15:22:45;23.80;99.90
53045;DHT22;38930;52.766;6.884;2022-09-12T15:25:11;23.80;99.90
53045;DHT22;38930;52.766;6.884;2022-09-12T15:27:38;23.60;99.90
53045;DHT22;38930;52.766;6.884;2022-09-12T15:30:10;23.60;99.90
53045;DHT22;38930;52.766;6.884;2022-09-12T15:32:36;23.60;99.90
53045;DHT22;38930;52.766;6.884;2022-09-12T15:35:02;23.60;99.90
53045;DHT22;38930;52.766;6.884;2022-09-12T15:37:27;23.50;99.90
53045;DHT22;38930;52.766;6.884;2022-09-12T15:39:53;23.50;99.90
53045;DHT22;38930;52.766;6.884;2022-09-12T15:42:27;23.50;99.90
53045;DHT22;38930;52.766;6.884;2022-09-12T15:44:53;23.50;99.90
53045;DHT22;38930;52.766;6.884;2022-09-12T15:47:19;23.60;99.90
53045;DHT22;38930;52.766;6.884;2022-09-12T15:49:46;23.50;99.90
53045;DHT22;38930;52.766;6.884;2022-09-12T15:52:14;23.60;99.90
53045;DHT22;38930;52.766;6.884;2022-09-12T15:54:40;23.60;99.90
53045;DHT22;38930;52.766;6.884;2022-09-12T15:57:06;23.60;99.90
53045;DHT22;38930;52.766;6.884;2022-09-12T15:59:32;23.60;99.90
53045;DHT22;38930;52.766;6.884;2022-09-12T16:01:57;23.50;99.90
53045;DHT22;38930;52.766;6.884;2022-09-12T16:04:25;23.50;99.90
53045;DHT22;38930;52.766;6.884;2022-09-12T16:06:52;23.40;99.90
53045;DHT22;38930;52.766;6.884;2022-09-12T16:09:18;23.30;99.90
53045;DHT22;38930;52.766;6.884;2022-09-12T16:11:44;23.30;99.90
53045;DHT22;38930;52.766;6.884;2022-09-12T16:14:13;23.30;99.90
53045;DHT22;38930;52.766;6.884;2022-09-12T16:16:39;23.20;99.90
53045;DHT22;38930;52.766;6.884;2022-09-12T16:19:05;23.20;99.90
53045;DHT22;38930;52.766;6.884;2022-09-12T16:21:30;23.20;99.90
53045;DHT22;38930;52.766;6.884;2022-09-12T16:23:56;23.10;99.90
53045;DHT22;38930;52.766;6.884;2022-09-12T16:26:22;23.00;99.90
53045;DHT22;38930;52.766;6.884;2022-09-12T16:28:53;23.00;99.90
53045;DHT22;38930;52.766;6.884;2022-09-12T16:31:20;23.00;99.90
53045;DHT22;38930;52.766;6.884;2022-09-12T16:33:45;23.00;99.90
53045;DHT22;38930;52.766;6.884;2022-09-12T16:36:14;22.70;99.90
53045;DHT22;38930;52.766;6.884;2022-09-12T16:38:44;22.80;99.90
53045;DHT22;38930;52.766;6.884;2022-09-12T16:41:11;22.80;99.90
53045;DHT22;38930;52.766;6.884;2022-09-12T16:43:37;22.70;99.90
53045;DHT22;38930;52.766;6.884;2022-09-12T16:46:18;22.60;99.90
53045;DHT22;38930;52.766;6.884;2022-09-12T16:48:49;22.60;99.90
53045;DHT22;38930;52.766;6.884;2022-09-12T16:51:16;22.50;99.90
53045;DHT22;38930;52.766;6.884;2022-09-12T16:53:45;22.50;99.90
53045;DHT22;38930;52.766;6.884;2022-09-12T16:56:11;22.50;99.90
53045;DHT22;38930;52.766;6.884;2022-09-12T16:58:39;22.50;99.90
53045;DHT22;38930;52.766;6.884;2022-09-12T17:01:07;22.40;99.90
53045;DHT22;38930;52.766;6.884;2022-09-12T17:03:34;22.40;99.90
53045;DHT22;38930;52.766;6.884;2022-09-12T17:06:11;22.40;99.90
53045;DHT22;38930;52.766;6.884;2022-09-12T17:08:42;22.30;99.90
53045;DHT22;38930;52.766;6.884;2022-09-12T17:11:10;22.30;99.90
53045;DHT22;38930;52.766;6.884;2022-09-12T17:13:36;22.20;99.90
53045;DHT22;38930;52.766;6.884;2022-09-12T17:16:09;22.20;99.90
53045;DHT22;38930;52.766;6.884;2022-09-12T17:18:38;22.10;99.90
53045;DHT22;38930;52.766;6.884;2022-09-12T17:21:08;22.00;99.90
53045;DHT22;38930;52.766;6.884;2022-09-12T17:23:34;21.90;99.90
53045;DHT22;38930;52.766;6.884;2022-09-12T17:25:59;21.80;99.90
53045;DHT22;38930;52.766;6.884;2022-09-12T17:28:25;21.80;99.90
53045;DHT22;38930;52.766;6.884;2022-09-12T17:31:00;21.70;99.90
53045;DHT22;38930;52.766;6.884;2022-09-12T17:33:27;21.60;99.90
53045;DHT22;38930;52.766;6.884;2022-09-12T17:35:52;21.60;99.90
53045;DHT22;38930;52.766;6.884;2022-09-12T17:38:19;21.50;99.90
53045;DHT22;38930;52.766;6.884;2022-09-12T17:40:45;21.40;99.90
53045;DHT22;38930;52.766;6.884;2022-09-12T17:43:12;21.40;99.90
53045;DHT22;38930;52.766;6.884;2022-09-12T17:45:38;21.30;99.90
53045;DHT22;38930;52.766;6.884;2022-09-12T17:48:05;21.20;99.90
53045;DHT22;38930;52.766;6.884;2022-09-12T17:50:36;21.20;99.90
53045;DHT22;38930;52.766;6.884;2022-09-12T17:53:02;21.10;99.90
53045;DHT22;38930;52.766;6.884;2022-09-12T17:55:28;21.00;99.90
53045;DHT22;38930;52.766;6.884;2022-09-12T17:57:57;21.00;99.90
53045;DHT22;38930;52.766;6.884;2022-09-12T18:00:24;20.90;99.90
53045;DHT22;38930;52.766;6.884;2022-09-12T18:03:10;20.90;99.90
53045;DHT22;38930;52.766;6.884;2022-09-12T18:05:35;20.80;99.90
53045;DHT22;38930;52.766;6.884;2022-09-12T18:08:08;20.80;99.90
53045;DHT22;38930;52.766;6.884;2022-09-12T18:10:34;20.80;99.90
53045;DHT22;38930;52.766;6.884;2022-09-12T18:12:59;20.70;99.90
53045;DHT22;38930;52.766;6.884;2022-09-12T18:15:25;20.70;99.90
53045;DHT22;38930;52.766;6.884;2022-09-12T18:17:51;20.60;99.90
53045;DHT22;38930;52.766;6.884;2022-09-12T18:20:16;20.60;99.90
53045;DHT22;38930;52.766;6.884;2022-09-12T18:22:42;20.50;99.90
53045;DHT22;38930;52.766;6.884;2022-09-12T18:25:08;20.50;99.90
53045;DHT22;38930;52.766;6.884;2022-09-12T18:27:33;20.30;99.90
53045;DHT22;38930;52.766;6.884;2022-09-12T18:29:59;20.30;99.90
53045;DHT22;38930;52.766;6.884;2022-09-12T18:32:25;20.20;99.90